Time;durP1;ratioP1;P1;durP2;ratioP2;P2;SDS_P1;SDS_P2;PMS_P1;PMS_P2;Temp;Humidity;BMP_temperature;BMP_pressure;BME280_temperature;BME280_humidity;BME280_pressure;Samples;Min_cycle;Max_cycle;Signal;HPM_P1;HPM_P2
2022/09/26 00:01:39;;;;;;;16.67;11.30;;;;;;;;;;5073805;28;20024;-60
2022/09/26 00:04:24;;;;;;;20.92;11.43;;;;;;;;;;5073647;28;20020;-61
2022/09/26 00:06:52;;;;;;;17.63;11.23;;;;;;;;;;5073505;28;20025;-62
2022/09/26 00:09:18;;;;;;;16.42;11.05;;;;;;;;;;5072368;28;20028;-62
2022/09/26 00:11:44;;;;;;;18.00;11.05;;;;;;;;;;5072219;28;20424;-63
2022/09/26 00:14:15;;;;;;;21.50;12.70;;;;;;;;;;5073329;28;20031;-62
2022/09/26 00:16:41;;;;;;;18.17;11.65;;;;;;;;;;5073099;28;20025;-62
2022/09/26 00:19:08;;;;;;;18.00;11.40;;;;;;;;;;5071052;28;20024;-61
2022/09/26 00:21:34;;;;;;;17.52;11.93;;;;;;;;;;5073064;28;20198;-59
2022/09/26 00:24:00;;;;;;;17.08;11.48;;;;;;;;;;5073190;28;20028;-62
2022/09/26 00:26:27;;;;;;;17.23;11.90;;;;;;;;;;5072025;28;20025;-61
2022/09/26 00:28:54;;;;;;;16.85;11.15;;;;;;;;;;5072044;28;20077;-62
2022/09/26 00:31:21;;;;;;;19.95;11.63;;;;;;;;;;5071660;28;20035;-62
2022/09/26 00:33:47;;;;;;;18.73;12.68;;;;;;;;;;5072952;28;20021;-62
2022/09/26 00:36:14;;;;;;;22.13;13.38;;;;;;;;;;5072833;28;20129;-59
2022/09/26 00:38:40;;;;;;;18.45;11.48;;;;;;;;;;5071788;28;20430;-61
2022/09/26 00:41:06;;;;;;;16.73;11.18;;;;;;;;;;5072533;28;20056;-61
2022/09/26 00:43:35;;;;;;;21.35;12.52;;;;;;;;;;5071557;28;20016;-61
2022/09/26 00:46:04;;;;;;;17.15;12.05;;;;;;;;;;5072539;28;20021;-61
2022/09/26 00:48:31;;;;;;;17.70;12.20;;;;;;;;;;5072053;28;20025;-62
2022/09/26 00:50:57;;;;;;;17.17;12.80;;;;;;;;;;5072271;28;20112;-62
2022/09/26 00:53:25;;;;;;;21.27;13.75;;;;;;;;;;5072550;28;20028;-63
2022/09/26 00:55:53;;;;;;;17.83;12.10;;;;;;;;;;5072641;28;20028;-61
2022/09/26 00:58:23;;;;;;;18.35;12.00;;;;;;;;;;5071700;28;20428;-61
2022/09/26 01:00:50;;;;;;;18.40;12.27;;;;;;;;;;5072299;28;20029;-61
2022/09/26 01:03:16;;;;;;;19.13;13.05;;;;;;;;;;5072734;28;20435;-61
2022/09/26 01:05:43;;;;;;;18.13;12.50;;;;;;;;;;5072333;28;20033;-62
2022/09/26 01:08:10;;;;;;;19.67;12.55;;;;;;;;;;5071597;28;20024;-62
2022/09/26 01:10:36;;;;;;;21.02;13.40;;;;;;;;;;5070942;28;20039;-62
2022/09/26 01:13:03;;;;;;;18.52;12.57;;;;;;;;;;5072220;28;20023;-61
2022/09/26 01:15:29;;;;;;;20.10;13.27;;;;;;;;;;5072424;28;20361;-62
2022/09/26 01:17:55;;;;;;;19.77;13.13;;;;;;;;;;5071558;28;20024;-62
2022/09/26 01:20:42;;;;;;;18.02;12.15;;;;;;;;;;5072405;28;20025;-61
2022/09/26 01:23:14;;;;;;;18.25;13.07;;;;;;;;;;5072511;28;20032;-62
2022/09/26 01:25:51;;;;;;;20.83;13.60;;;;;;;;;;5072295;28;20100;-62
2022/09/26 01:28:29;;;;;;;22.08;13.70;;;;;;;;;;5071630;28;20028;-62
2022/09/26 01:31:04;;;;;;;24.13;12.68;;;;;;;;;;5070953;28;20044;-61
2022/09/26 01:33:49;;;;;;;19.60;13.02;;;;;;;;;;5071995;28;20025;-59
2022/09/26 01:36:18;;;;;;;18.80;13.02;;;;;;;;;;5072667;28;20021;-61
2022/09/26 01:38:56;;;;;;;20.30;13.30;;;;;;;;;;5073000;28;20172;-61
2022/09/26 01:41:23;;;;;;;19.00;12.90;;;;;;;;;;5074142;28;20017;-61
2022/09/26 01:43:49;;;;;;;21.30;13.10;;;;;;;;;;5072843;28;20054;-60
2022/09/26 01:46:23;;;;;;;19.13;12.68;;;;;;;;;;5073894;28;20052;-61
2022/09/26 01:49:00;;;;;;;22.17;13.20;;;;;;;;;;5073605;28;20092;-61
2022/09/26 01:51:33;;;;;;;21.50;13.35;;;;;;;;;;5073661;28;20106;-61
2022/09/26 01:54:01;;;;;;;20.02;13.52;;;;;;;;;;5073677;28;20032;-61
2022/09/26 01:56:29;;;;;;;20.17;13.15;;;;;;;;;;5073070;28;20024;-61
2022/09/26 01:59:00;;;;;;;20.20;13.65;;;;;;;;;;5072985;28;20028;-61
2022/09/26 02:01:28;;;;;;;21.63;14.07;;;;;;;;;;5073626;28;20086;-62
2022/09/26 02:03:55;;;;;;;20.27;13.93;;;;;;;;;;5073526;28;20147;-61
2022/09/26 02:06:51;;;;;;;21.00;14.27;;;;;;;;;;5072992;28;20027;-60
2022/09/26 02:09:18;;;;;;;22.38;14.35;;;;;;;;;;5053907;28;20423;-61
2022/09/26 02:11:48;;;;;;;19.95;13.57;;;;;;;;;;5072077;28;20098;-60
2022/09/26 02:14:20;;;;;;;22.33;14.70;;;;;;;;;;5070727;28;20079;-61
2022/09/26 02:16:47;;;;;;;20.88;14.18;;;;;;;;;;5070646;28;20493;-57
2022/09/26 02:19:20;;;;;;;20.80;13.57;;;;;;;;;;5070665;28;20029;-60
2022/09/26 02:21:46;;;;;;;21.35;13.82;;;;;;;;;;5071592;28;20059;-59
2022/09/26 02:24:12;;;;;;;24.27;15.63;;;;;;;;;;5072313;28;20024;-61
2022/09/26 02:26:41;;;;;;;19.90;14.25;;;;;;;;;;5072722;28;20039;-61
2022/09/26 02:29:07;;;;;;;19.75;13.77;;;;;;;;;;5071701;28;20105;-61
2022/09/26 02:31:36;;;;;;;21.80;14.18;;;;;;;;;;5072370;28;20029;-61
2022/09/26 02:34:06;;;;;;;23.48;14.18;;;;;;;;;;5071950;28;20025;-58
2022/09/26 02:36:34;;;;;;;21.98;14.05;;;;;;;;;;5071634;28;20123;-62
2022/09/26 02:39:00;;;;;;;21.90;14.38;;;;;;;;;;5069367;28;20020;-59
2022/09/26 02:41:28;;;;;;;19.48;13.57;;;;;;;;;;5071763;28;20024;-61
2022/09/26 02:44:06;;;;;;;19.83;13.50;;;;;;;;;;5070863;28;20028;-61
2022/09/26 02:46:39;;;;;;;19.25;13.50;;;;;;;;;;5075409;28;20048;-61
2022/09/26 02:49:15;;;;;;;22.63;13.80;;;;;;;;;;5074499;28;20055;-60
2022/09/26 02:52:06;;;;;;;21.65;13.85;;;;;;;;;;5074940;28;20052;-60
2022/09/26 02:54:35;;;;;;;23.17;14.27;;;;;;;;;;5074864;28;20099;-60
2022/09/26 02:57:02;;;;;;;;;;;;;;;;;;5073809;28;20028;-58
2022/09/26 02:59:58;;;;;;;22.55;15.80;;;;;;;;;;5073981;28;20054;-61
2022/09/26 03:02:29;;;;;;;22.33;14.50;;;;;;;;;;5057916;28;20032;-61
2022/09/26 03:05:02;;;;;;;23.08;13.98;;;;;;;;;;5073457;28;20028;-60
2022/09/26 03:07:43;;;;;;;19.40;13.32;;;;;;;;;;5074007;28;20017;-61
2022/09/26 03:10:11;;;;;;;19.30;13.43;;;;;;;;;;5074690;28;20028;-61
2022/09/26 03:12:37;;;;;;;20.55;14.38;;;;;;;;;;5074382;28;20029;-60
2022/09/26 03:15:04;;;;;;;20.90;13.82;;;;;;;;;;5072981;28;20393;-59
2022/09/26 03:17:33;;;;;;;19.88;14.32;;;;;;;;;;5073626;28;20032;-62
2022/09/26 03:20:10;;;;;;;20.50;14.07;;;;;;;;;;5073162;28;20032;-59
2022/09/26 03:22:36;;;;;;;20.25;14.15;;;;;;;;;;5074303;28;20383;-61
2022/09/26 03:25:03;;;;;;;19.67;14.10;;;;;;;;;;5074153;28;20025;-61
2022/09/26 03:27:30;;;;;;;20.63;14.25;;;;;;;;;;5073133;28;20405;-62
2022/09/26 03:29:58;;;;;;;20.55;13.80;;;;;;;;;;5074205;28;20080;-60
2022/09/26 03:32:24;;;;;;;26.60;14.07;;;;;;;;;;5074352;28;20027;-59
2022/09/26 03:34:50;;;;;;;20.40;13.27;;;;;;;;;;5074215;28;20095;-60
2022/09/26 03:37:16;;;;;;;21.20;14.55;;;;;;;;;;5073280;28;20062;-55
2022/09/26 03:39:43;;;;;;;23.05;14.35;;;;;;;;;;5073894;28;20028;-60
2022/09/26 03:42:09;;;;;;;22.05;14.10;;;;;;;;;;5073734;28;20485;-61
2022/09/26 03:44:35;;;;;;;20.05;14.40;;;;;;;;;;5073738;28;20445;-61
2022/09/26 03:47:02;;;;;;;22.02;15.07;;;;;;;;;;5073455;28;20054;-59
2022/09/26 03:49:28;;;;;;;21.20;13.65;;;;;;;;;;5073338;28;20054;-59
2022/09/26 03:51:54;;;;;;;23.88;14.73;;;;;;;;;;5073652;28;20039;-61
2022/09/26 03:54:20;;;;;;;21.50;13.70;;;;;;;;;;5073330;28;20028;-62
2022/09/26 03:56:46;;;;;;;22.20;14.88;;;;;;;;;;5073245;28;20025;-61
2022/09/26 03:59:12;;;;;;;21.98;14.40;;;;;;;;;;5072638;28;20029;-61
2022/09/26 04:01:38;;;;;;;21.30;14.30;;;;;;;;;;5073538;28;20025;-61
2022/09/26 04:04:04;;;;;;;21.88;14.32;;;;;;;;;;5073448;28;20511;-64
2022/09/26 04:06:30;;;;;;;20.10;14.30;;;;;;;;;;5073432;28;20028;-61
2022/09/26 04:08:56;;;;;;;19.90;14.30;;;;;;;;;;5071895;28;20068;-60
2022/09/26 04:11:23;;;;;;;20.83;14.52;;;;;;;;;;5073103;28;20508;-61
2022/09/26 04:13:49;;;;;;;22.63;16.35;;;;;;;;;;5073222;28;20028;-60
2022/09/26 04:16:15;;;;;;;19.55;13.63;;;;;;;;;;5073368;28;20039;-60
2022/09/26 04:18:41;;;;;;;25.83;15.18;;;;;;;;;;5071099;28;20393;-61
2022/09/26 04:21:12;;;;;;;21.70;14.65;;;;;;;;;;5071593;28;20021;-61
2022/09/26 04:23:39;;;;;;;22.25;15.30;;;;;;;;;;5072947;28;20053;-61
2022/09/26 04:26:10;;;;;;;23.05;15.65;;;;;;;;;;5069999;28;20388;-59
2022/09/26 04:28:37;;;;;;;22.10;15.07;;;;;;;;;;5070654;28;20020;-61
2022/09/26 04:31:05;;;;;;;21.33;15.35;;;;;;;;;;5072729;28;20036;-61
2022/09/26 04:33:32;;;;;;;22.02;15.80;;;;;;;;;;5072514;28;20546;-62
2022/09/26 04:36:01;;;;;;;22.33;16.55;;;;;;;;;;5072367;28;20296;-60
2022/09/26 04:38:31;;;;;;;20.63;15.68;;;;;;;;;;5071819;28;20149;-60
2022/09/26 04:40:57;;;;;;;24.20;15.48;;;;;;;;;;5072476;28;20021;-62
2022/09/26 04:43:23;;;;;;;21.65;15.77;;;;;;;;;;5072657;28;20023;-58
2022/09/26 04:45:49;;;;;;;21.92;15.48;;;;;;;;;;5072248;28;20445;-58
2022/09/26 04:48:15;;;;;;;22.35;16.20;;;;;;;;;;5071799;28;20078;-60
2022/09/26 04:50:41;;;;;;;21.88;17.10;;;;;;;;;;5072430;28;20021;-62
2022/09/26 04:53:07;;;;;;;24.75;16.50;;;;;;;;;;5073121;28;20463;-62
2022/09/26 04:55:34;;;;;;;23.17;16.75;;;;;;;;;;5073398;28;20505;-61
2022/09/26 04:58:01;;;;;;;22.67;16.25;;;;;;;;;;5071608;28;20496;-62
2022/09/26 05:00:27;;;;;;;24.08;16.23;;;;;;;;;;5071968;28;20051;-61
2022/09/26 05:02:53;;;;;;;23.95;17.42;;;;;;;;;;5070473;28;20052;-61
2022/09/26 05:05:20;;;;;;;20.75;15.70;;;;;;;;;;5071871;28;20481;-61
2022/09/26 05:07:46;;;;;;;22.83;17.42;;;;;;;;;;5069092;28;20020;-59
2022/09/26 05:10:12;;;;;;;24.33;17.50;;;;;;;;;;5072077;28;20081;-60
2022/09/26 05:12:40;;;;;;;24.92;17.38;;;;;;;;;;5072025;28;20028;-58
2022/09/26 05:15:07;;;;;;;22.02;17.17;;;;;;;;;;5071942;28;20020;-62
2022/09/26 05:17:34;;;;;;;23.02;16.80;;;;;;;;;;5071216;28;20130;-61
2022/09/26 05:20:01;;;;;;;24.20;17.30;;;;;;;;;;5071661;28;20025;-62
2022/09/26 05:22:30;;;;;;;22.52;17.10;;;;;;;;;;5071754;28;20032;-59
2022/09/26 05:27:41;;;;;;;22.92;16.77;;;;;;;;;;5059438;28;20036;-60
2022/09/26 05:30:07;;;;;;;23.55;16.88;;;;;;;;;;5051932;28;20025;-61
2022/09/26 05:32:33;;;;;;;24.92;17.00;;;;;;;;;;5052127;28;20447;-61
2022/09/26 05:34:59;;;;;;;22.13;16.58;;;;;;;;;;5051991;28;20032;-60
2022/09/26 05:37:25;;;;;;;25.75;16.38;;;;;;;;;;5051386;28;20031;-62
2022/09/26 05:42:35;;;;;;;22.85;16.27;;;;;;;;;;5052241;28;20032;-61
2022/09/26 05:45:02;;;;;;;26.88;16.77;;;;;;;;;;5052337;28;20104;-61
2022/09/26 05:47:30;;;;;;;22.73;16.00;;;;;;;;;;5051195;28;20043;-62
2022/09/26 05:49:56;;;;;;;22.70;15.73;;;;;;;;;;5051927;28;20124;-55
2022/09/26 05:52:22;;;;;;;23.10;17.17;;;;;;;;;;5052215;28;20057;-61
2022/09/26 05:54:48;;;;;;;32.40;17.20;;;;;;;;;;5052107;28;20041;-56
2022/09/26 05:57:14;;;;;;;23.30;15.70;;;;;;;;;;5051393;28;20071;-60
2022/09/26 05:59:40;;;;;;;24.25;16.42;;;;;;;;;;5051622;28;20021;-60
2022/09/26 06:02:06;;;;;;;21.40;15.07;;;;;;;;;;5066254;28;20029;-58
2022/09/26 06:04:32;;;;;;;20.42;15.02;;;;;;;;;;5071878;28;20025;-61
2022/09/26 06:06:58;;;;;;;23.95;15.68;;;;;;;;;;5071846;28;20021;-59
2022/09/26 06:09:25;;;;;;;21.60;15.05;;;;;;;;;;5071061;28;20488;-60
2022/09/26 06:11:50;;;;;;;28.67;15.63;;;;;;;;;;5071881;28;20085;-57
2022/09/26 06:14:16;;;;;;;23.45;15.27;;;;;;;;;;5071943;28;20056;-58
2022/09/26 06:16:42;;;;;;;21.13;15.55;;;;;;;;;;5070018;28;20031;-61
2022/09/26 06:19:08;;;;;;;22.38;15.43;;;;;;;;;;5071578;28;20024;-62
2022/09/26 06:21:38;;;;;;;21.17;15.10;;;;;;;;;;5075334;28;20104;-61
2022/09/26 06:24:05;;;;;;;22.20;15.50;;;;;;;;;;5075360;28;20020;-60
2022/09/26 06:26:30;;;;;;;23.75;15.35;;;;;;;;;;5075050;28;20031;-60
2022/09/26 06:28:59;;;;;;;19.73;14.45;;;;;;;;;;5054286;28;20025;-65
2022/09/26 06:31:25;;;;;;;22.35;14.63;;;;;;;;;;5055625;28;20063;-65
2022/09/26 06:33:54;;;;;;;20.80;15.43;;;;;;;;;;5055496;28;20033;-62
2022/09/26 06:36:21;;;;;;;23.40;14.90;;;;;;;;;;5055070;28;20382;-56
2022/09/26 06:38:47;;;;;;;22.25;15.60;;;;;;;;;;5052809;28;20029;-56
2022/09/26 06:41:15;;;;;;;22.42;14.65;;;;;;;;;;5055038;28;20100;-58
2022/09/26 06:43:41;;;;;;;23.25;15.63;;;;;;;;;;5055112;28;20469;-60
2022/09/26 06:46:08;;;;;;;27.55;14.80;;;;;;;;;;5056557;28;20513;-62
2022/09/26 06:48:34;;;;;;;20.35;14.75;;;;;;;;;;5067547;28;20035;-61
2022/09/26 06:51:00;;;;;;;22.65;15.15;;;;;;;;;;5061476;28;20451;-62
2022/09/26 06:53:27;;;;;;;24.08;16.30;;;;;;;;;;5054960;28;20029;-59
2022/09/26 06:55:53;;;;;;;21.98;14.52;;;;;;;;;;5054785;28;20033;-61
2022/09/26 06:58:20;;;;;;;22.40;14.32;;;;;;;;;;5053967;28;20055;-56
2022/09/26 07:00:46;;;;;;;22.63;14.55;;;;;;;;;;5054991;28;20043;-62
2022/09/26 07:03:14;;;;;;;20.88;14.15;;;;;;;;;;5054523;28;20453;-61
2022/09/26 07:05:41;;;;;;;;;;;;;;;;;;5054984;28;20104;-61
2022/09/26 07:08:07;;;;;;;21.33;14.10;;;;;;;;;;5053753;28;19908;-61
2022/09/26 07:10:34;;;;;;;21.08;14.23;;;;;;;;;;5054768;28;20041;-61
2022/09/26 07:13:02;;;;;;;24.25;15.15;;;;;;;;;;5054923;28;20029;-59
2022/09/26 07:15:32;;;;;;;23.55;14.57;;;;;;;;;;5053663;28;20025;-60
2022/09/26 07:18:01;;;;;;;20.42;13.45;;;;;;;;;;5054110;28;20033;-61
2022/09/26 07:20:28;;;;;;;21.02;13.60;;;;;;;;;;5054599;28;20128;-60
2022/09/26 07:22:54;;;;;;;19.23;12.55;;;;;;;;;;5054680;28;20083;-61
2022/09/26 07:25:20;;;;;;;21.08;13.23;;;;;;;;;;5054873;28;20087;-59
2022/09/26 07:27:49;;;;;;;22.35;14.20;;;;;;;;;;5053874;28;20020;-60
2022/09/26 07:30:15;;;;;;;21.08;13.32;;;;;;;;;;5053647;28;20061;-62
2022/09/26 07:32:46;;;;;;;19.92;13.07;;;;;;;;;;5054279;28;20437;-61
2022/09/26 07:35:13;;;;;;;21.50;13.32;;;;;;;;;;5054443;28;20033;-61
2022/09/26 07:37:39;;;;;;;19.08;12.73;;;;;;;;;;5053450;28;20033;-61
2022/09/26 07:40:05;;;;;;;20.35;12.55;;;;;;;;;;5053925;28;20031;-61
2022/09/26 07:42:31;;;;;;;21.13;13.52;;;;;;;;;;5054313;28;20617;-62
2022/09/26 07:44:57;;;;;;;22.15;13.00;;;;;;;;;;5053957;28;20116;-61
2022/09/26 07:50:15;;;;;;;20.58;12.85;;;;;;;;;;5054166;28;20048;-64
2022/09/26 07:52:45;;;;;;;18.83;11.98;;;;;;;;;;5054486;28;20017;-64
2022/09/26 07:55:12;;;;;;;19.50;12.27;;;;;;;;;;5054233;28;20029;-62
2022/09/26 07:57:38;;;;;;;19.73;12.20;;;;;;;;;;5053437;28;20374;-64
2022/09/26 08:00:06;;;;;;;18.80;12.05;;;;;;;;;;5052723;28;20025;-64
2022/09/26 08:02:34;;;;;;;17.52;11.65;;;;;;;;;;5053297;28;20385;-64
2022/09/26 08:05:04;;;;;;;18.30;12.77;;;;;;;;;;5054303;28;20021;-64
2022/09/26 08:07:31;;;;;;;16.85;11.70;;;;;;;;;;5053234;28;20033;-64
2022/09/26 08:09:57;;;;;;;19.90;12.43;;;;;;;;;;5053558;28;20026;-63
2022/09/26 08:12:24;;;;;;;19.90;11.82;;;;;;;;;;5053644;28;20040;-64
2022/09/26 08:14:51;;;;;;;18.52;12.00;;;;;;;;;;5053613;28;20028;-63
2022/09/26 08:17:18;;;;;;;19.45;11.63;;;;;;;;;;5053012;28;20021;-62
2022/09/26 08:19:44;;;;;;;19.30;11.50;;;;;;;;;;5053353;28;20032;-64
2022/09/26 08:22:10;;;;;;;18.35;12.00;;;;;;;;;;5053424;28;20025;-65
2022/09/26 08:24:37;;;;;;;18.73;11.30;;;;;;;;;;5053437;28;20036;-64
2022/09/26 08:27:04;;;;;;;19.27;12.10;;;;;;;;;;5053426;28;20021;-63
2022/09/26 08:29:31;;;;;;;20.75;11.43;;;;;;;;;;5053042;28;20083;-64
2022/09/26 08:31:57;;;;;;;20.25;12.10;;;;;;;;;;5068663;28;20048;-65
2022/09/26 08:34:23;;;;;;;17.25;11.43;;;;;;;;;;5083777;28;20472;-64
2022/09/26 08:36:53;;;;;;;18.90;11.20;;;;;;;;;;5073953;28;20028;-64
2022/09/26 08:39:19;;;;;;;19.05;11.80;;;;;;;;;;5072428;28;20032;-63
2022/09/26 08:42:12;;;;;;;17.13;11.05;;;;;;;;;;5073287;28;20021;-63
2022/09/26 08:44:56;;;;;;;21.95;11.60;;;;;;;;;;5049524;28;20032;-64
2022/09/26 08:47:42;;;;;;;17.17;11.40;;;;;;;;;;5072309;28;20024;-63
2022/09/26 08:50:10;;;;;;;19.17;11.55;;;;;;;;;;5072905;28;20035;-63
2022/09/26 08:52:45;;;;;;;19.08;12.10;;;;;;;;;;5073131;28;20048;-63
2022/09/26 08:55:15;;;;;;;19.00;11.25;;;;;;;;;;5072881;28;20044;-63
2022/09/26 08:57:42;;;;;;;18.08;11.20;;;;;;;;;;5072375;28;20032;-65
2022/09/26 09:00:17;;;;;;;16.75;10.27;;;;;;;;;;5074018;28;20137;-64
2022/09/26 09:03:02;;;;;;;19.00;11.95;;;;;;;;;;5074633;28;20029;-58
2022/09/26 09:05:33;;;;;;;19.52;11.45;;;;;;;;;;5072831;28;20496;-64
2022/09/26 09:08:00;;;;;;;18.60;11.60;;;;;;;;;;5071766;28;20536;-63
2022/09/26 09:10:41;;;;;;;20.00;11.07;;;;;;;;;;5075243;28;20032;-64
2022/09/26 09:13:34;;;;;;;21.58;11.95;;;;;;;;;;5074811;28;20048;-64
2022/09/26 09:16:00;;;;;;;17.40;10.85;;;;;;;;;;5071247;28;20450;-64
2022/09/26 09:18:43;;;;;;;17.15;11.77;;;;;;;;;;5072933;28;20095;-63
2022/09/26 09:21:12;;;;;;;18.88;10.70;;;;;;;;;;5075756;28;20059;-64
2022/09/26 09:23:41;;;;;;;16.70;11.52;;;;;;;;;;5075498;28;20476;-64
2022/09/26 09:26:07;;;;;;;;;;;;;;;;;;5073081;28;20032;-64
2022/09/26 09:28:39;;;;;;;16.85;10.10;;;;;;;;;;5057527;28;19905;-63
2022/09/26 09:31:08;;;;;;;18.60;10.88;;;;;;;;;;5053421;28;20440;-64
2022/09/26 09:33:40;;;;;;;20.05;10.70;;;;;;;;;;5058486;28;20029;-63
2022/09/26 09:36:08;;;;;;;21.70;10.38;;;;;;;;;;5057207;28;20112;-64
2022/09/26 09:38:36;;;;;;;16.83;10.48;;;;;;;;;;5054495;28;20055;-64
2022/09/26 09:41:05;;;;;;;17.63;10.15;;;;;;;;;;5055487;28;20492;-64
2022/09/26 09:43:48;;;;;;;17.95;10.27;;;;;;;;;;5063789;28;20076;-64
2022/09/26 09:46:17;;;;;;;17.77;10.88;;;;;;;;;;5070710;28;20016;-64
2022/09/26 09:48:46;;;;;;;16.50;10.52;;;;;;;;;;5071247;28;20020;-64
2022/09/26 09:51:15;;;;;;;18.48;10.98;;;;;;;;;;5072784;28;20020;-64
2022/09/26 09:53:41;;;;;;;;;;;;;;;;;;5075279;28;20024;-64
2022/09/26 09:56:16;;;;;;;18.63;12.35;;;;;;;;;;5076601;28;20283;-64
2022/09/26 09:59:02;;;;;;;17.70;11.70;;;;;;;;;;5074487;28;20046;-63
2022/09/26 10:01:38;;;;;;;20.05;13.35;;;;;;;;;;5033782;28;20033;-64
2022/09/26 10:04:19;;;;;;;18.42;12.65;;;;;;;;;;5075212;28;20500;-64
2022/09/26 10:06:47;;;;;;;17.27;12.20;;;;;;;;;;5073895;28;20029;-63
2022/09/26 10:09:18;;;;;;;17.80;11.98;;;;;;;;;;5076809;28;20036;-63
2022/09/26 10:11:44;;;;;;;16.70;11.60;;;;;;;;;;5078585;28;20028;-65
2022/09/26 10:14:13;;;;;;;17.75;11.55;;;;;;;;;;5078578;28;20024;-63
2022/09/26 10:17:00;;;;;;;20.33;11.05;;;;;;;;;;5078501;28;20115;-63
2022/09/26 10:19:35;;;;;;;18.27;11.70;;;;;;;;;;5076021;28;20103;-63
2022/09/26 10:22:01;;;;;;;19.40;11.88;;;;;;;;;;5076376;28;20024;-63
2022/09/26 10:24:33;;;;;;;18.15;12.25;;;;;;;;;;5075095;28;20406;-60
2022/09/26 10:27:12;;;;;;;18.55;11.88;;;;;;;;;;5070863;28;20025;-63
2022/09/26 10:29:39;;;;;;;18.55;13.60;;;;;;;;;;5055407;28;20032;-63
2022/09/26 10:32:06;;;;;;;19.05;12.60;;;;;;;;;;5055126;28;20044;-64
2022/09/26 10:34:33;;;;;;;17.92;14.20;;;;;;;;;;5053625;28;20025;-64
2022/09/26 10:37:17;;;;;;;20.13;13.90;;;;;;;;;;5055175;28;20382;-64
2022/09/26 10:42:37;;;;;;;21.10;14.48;;;;;;;;;;5056273;28;20108;-64
2022/09/26 10:45:10;;;;;;;20.50;14.68;;;;;;;;;;5055118;28;20048;-63
2022/09/26 10:47:37;;;;;;;22.58;14.35;;;;;;;;;;5054063;28;20083;-64
2022/09/26 10:50:03;;;;;;;18.70;13.30;;;;;;;;;;5055571;28;20111;-65
2022/09/26 10:52:33;;;;;;;19.40;14.40;;;;;;;;;;5055544;28;20029;-64
2022/09/26 10:54:59;;;;;;;21.15;14.68;;;;;;;;;;5055353;28;20056;-64
2022/09/26 10:57:32;;;;;;;19.20;15.15;;;;;;;;;;5056419;28;20123;-65
2022/09/26 11:00:00;;;;;;;20.17;17.38;;;;;;;;;;5055852;28;20029;-65
2022/09/26 11:02:27;;;;;;;22.63;19.70;;;;;;;;;;5055533;28;20041;-61
2022/09/26 11:07:46;;;;;;;25.85;23.42;;;;;;;;;;5054956;28;20084;-64
2022/09/26 11:10:14;;;;;;;27.95;25.25;;;;;;;;;;5085524;22;20047;-67
2022/09/26 11:12:55;;;;;;;29.73;26.92;;;;;;;;;;5094613;28;20097;-67
2022/09/26 11:15:22;;;;;;;29.40;26.80;;;;;;;;;;5094232;28;20103;-67
2022/09/26 11:17:49;;;;;;;31.58;28.70;;;;;;;;;;5093487;28;20028;-66
2022/09/26 11:20:27;;;;;;;30.13;27.50;;;;;;;;;;5094021;28;20035;-65
2022/09/26 11:23:13;;;;;;;31.88;29.08;;;;;;;;;;5092165;28;20020;-69
2022/09/26 11:26:02;;;;;;;31.77;28.60;;;;;;;;;;5093880;28;20028;-66
2022/09/26 11:28:37;;;;;;;31.00;28.30;;;;;;;;;;5069436;28;20480;-67
2022/09/26 11:31:08;;;;;;;30.52;27.77;;;;;;;;;;5073361;28;20029;-67
2022/09/26 11:33:34;;;;;;;31.08;28.48;;;;;;;;;;5074136;28;20012;-68
2022/09/26 11:36:09;;;;;;;30.13;27.63;;;;;;;;;;5073731;28;20065;-68
2022/09/26 11:38:39;;;;;;;30.63;27.70;;;;;;;;;;5072832;28;20020;-68
2022/09/26 11:41:06;;;;;;;30.83;28.20;;;;;;;;;;5073240;28;20025;-67
2022/09/26 11:43:51;;;;;;;30.58;27.90;;;;;;;;;;5088342;28;20016;-68
2022/09/26 11:46:37;;;;;;;32.15;29.35;;;;;;;;;;5093563;28;20020;-68
2022/09/26 11:49:19;;;;;;;31.40;28.65;;;;;;;;;;5092992;28;20396;-70
2022/09/26 11:52:00;;;;;;;28.02;25.38;;;;;;;;;;5092166;28;20032;-68
2022/09/26 11:54:31;;;;;;;27.38;24.98;;;;;;;;;;5093611;28;20443;-68
2022/09/26 11:56:57;;;;;;;25.88;23.40;;;;;;;;;;5093634;28;20400;-69
2022/09/26 11:59:51;;;;;;;24.45;22.05;;;;;;;;;;4736122;28;9999909;-67
2022/09/26 12:02:32;;;;;;;23.70;21.30;;;;;;;;;;5076534;28;20039;-69
2022/09/26 12:04:58;;;;;;;20.92;18.73;;;;;;;;;;5081966;28;20464;-68
2022/09/26 12:07:24;;;;;;;24.10;21.73;;;;;;;;;;5082861;28;20980;-68
2022/09/26 12:10:03;;;;;;;21.70;19.40;;;;;;;;;;5078715;28;20020;-69
2022/09/26 12:12:40;;;;;;;20.33;18.02;;;;;;;;;;5077318;28;20016;-68
2022/09/26 12:15:10;;;;;;;20.98;17.83;;;;;;;;;;5079063;28;20052;-69
2022/09/26 12:17:58;;;;;;;19.10;16.65;;;;;;;;;;5080333;28;20035;-70
2022/09/26 12:20:42;;;;;;;17.67;15.18;;;;;;;;;;5087950;28;20078;-69
2022/09/26 12:23:17;;;;;;;18.00;15.52;;;;;;;;;;5088864;28;20093;-68
2022/09/26 12:25:56;;;;;;;19.98;14.65;;;;;;;;;;5089676;28;20437;-69
2022/09/26 12:28:30;;;;;;;18.52;14.02;;;;;;;;;;5073477;28;20455;-66
2022/09/26 12:31:11;;;;;;;17.75;13.25;;;;;;;;;;5067116;28;20028;-67
2022/09/26 12:33:53;;;;;;;16.73;13.60;;;;;;;;;;5073404;28;20016;-68
2022/09/26 12:36:20;;;;;;;16.40;12.88;;;;;;;;;;5089685;28;20479;-68
2022/09/26 12:39:04;;;;;;;16.00;11.70;;;;;;;;;;5089013;28;20134;-69
2022/09/26 12:41:30;;;;;;;16.83;11.65;;;;;;;;;;5089276;28;20035;-69
2022/09/26 12:43:59;;;;;;;16.65;10.73;;;;;;;;;;5088013;28;20020;-68
2022/09/26 12:46:49;;;;;;;17.70;11.55;;;;;;;;;;5088730;28;20024;-66
2022/09/26 12:49:27;;;;;;;18.80;11.30;;;;;;;;;;5074481;28;20043;-69
2022/09/26 12:51:54;;;;;;;17.33;10.95;;;;;;;;;;5091581;28;20016;-68
2022/09/26 12:54:33;;;;;;;16.65;11.68;;;;;;;;;;5090841;28;20169;-68
2022/09/26 12:57:04;;;;;;;15.48;11.00;;;;;;;;;;5090990;28;20484;-68
2022/09/26 12:59:39;;;;;;;16.13;11.02;;;;;;;;;;5091608;28;20036;-68
2022/09/26 13:02:27;;;;;;;18.55;11.70;;;;;;;;;;5092424;28;20020;-66
2022/09/26 13:05:01;;;;;;;16.20;11.27;;;;;;;;;;5091064;28;20074;-67
2022/09/26 13:07:52;;;;;;;16.65;11.43;;;;;;;;;;5091566;28;20099;-67
2022/09/26 13:10:32;;;;;;;15.60;10.90;;;;;;;;;;5092100;28;20100;-66
2022/09/26 13:13:33;;;;;;;15.65;10.60;;;;;;;;;;5091175;28;20020;-68
2022/09/26 13:16:17;;;;;;;15.55;11.27;;;;;;;;;;4660174;28;10000328;-66
2022/09/26 13:18:48;;;;;;;16.50;10.90;;;;;;;;;;5081483;28;20183;-67
2022/09/26 13:21:23;;;;;;;16.70;11.45;;;;;;;;;;5088449;28;20031;-67
2022/09/26 13:23:52;;;;;;;16.25;10.68;;;;;;;;;;5088689;28;20429;-64
2022/09/26 13:26:26;;;;;;;15.68;11.23;;;;;;;;;;5087183;28;20147;-68
2022/09/26 13:29:02;;;;;;;17.10;11.45;;;;;;;;;;5086991;28;20052;-66
2022/09/26 13:31:36;;;;;;;17.08;12.43;;;;;;;;;;5074293;28;20035;-68
2022/09/26 13:34:02;;;;;;;17.38;11.98;;;;;;;;;;5068141;28;20029;-67
2022/09/26 13:36:30;;;;;;;16.83;11.35;;;;;;;;;;5084311;28;20039;-68
2022/09/26 13:38:56;;;;;;;20.95;12.82;;;;;;;;;;5082819;28;20112;-66
2022/09/26 13:41:29;;;;;;;15.73;11.52;;;;;;;;;;5073660;28;20111;-68
2022/09/26 13:44:05;;;;;;;16.35;10.95;;;;;;;;;;5067490;28;20055;-65
2022/09/26 13:46:31;;;;;;;15.32;10.93;;;;;;;;;;5066832;28;20116;-65
2022/09/26 13:48:59;;;;;;;15.82;11.13;;;;;;;;;;5067189;28;20028;-64
2022/09/26 13:51:47;;;;;;;16.45;11.23;;;;;;;;;;5077784;28;20032;-65
2022/09/26 13:54:27;;;;;;;15.73;10.97;;;;;;;;;;5038080;28;20141;-65
2022/09/26 13:56:54;;;;;;;19.60;12.77;;;;;;;;;;5077155;28;20028;-64
2022/09/26 13:59:33;;;;;;;17.13;11.90;;;;;;;;;;5072133;28;20120;-64
2022/09/26 14:02:17;;;;;;;17.73;11.15;;;;;;;;;;5076185;28;20080;-64
2022/09/26 14:04:47;;;;;;;17.23;11.30;;;;;;;;;;5077201;28;20119;-63
2022/09/26 14:10:02;;;;;;;15.80;10.15;;;;;;;;;;5077221;28;20031;-65
2022/09/26 14:12:47;;;;;;;17.10;10.25;;;;;;;;;;5076507;28;20020;-63
2022/09/26 14:15:16;;;;;;;17.67;11.65;;;;;;;;;;5080009;28;20469;-64
2022/09/26 14:18:02;;;;;;;17.15;10.57;;;;;;;;;;5078810;28;20025;-63
2022/09/26 14:20:30;;;;;;;16.27;10.80;;;;;;;;;;5081363;28;20020;-63
2022/09/26 14:22:56;;;;;;;16.33;10.88;;;;;;;;;;5078201;28;20107;-64
2022/09/26 14:25:46;;;;;;;19.07;11.73;;;;;;;;;;4719937;28;10001278;-62
2022/09/26 14:28:27;;;;;;;17.10;11.35;;;;;;;;;;5075954;28;20448;-63
2022/09/26 14:31:10;;;;;;;15.02;10.18;;;;;;;;;;5078173;28;20038;-62
2022/09/26 14:33:36;;;;;;;19.75;11.15;;;;;;;;;;5081956;28;20087;-64
2022/09/26 14:36:21;;;;;;;16.77;10.13;;;;;;;;;;5074593;28;20055;-63
2022/09/26 14:38:48;;;;;;;17.30;10.30;;;;;;;;;;5077011;28;20024;-62
2022/09/26 14:41:17;;;;;;;15.70;9.73;;;;;;;;;;5080003;28;20024;-64
2022/09/26 14:43:43;;;;;;;15.07;10.02;;;;;;;;;;5088629;28;20020;-63
2022/09/26 14:46:18;;;;;;;16.05;9.93;;;;;;;;;;5090258;28;20082;-63
2022/09/26 14:48:44;;;;;;;19.08;10.85;;;;;;;;;;5090420;28;20024;-64
2022/09/26 14:51:11;;;;;;;16.77;12.07;;;;;;;;;;5087339;28;20040;-60
2022/09/26 14:53:44;;;;;;;16.58;11.60;;;;;;;;;;5074349;28;20153;-61
2022/09/26 14:56:31;;;;;;;17.10;11.68;;;;;;;;;;5071673;28;20078;-62